Terminal Aerodrome Forecast
Issued by NWS

Home | Current Version | Previous Version | Text Only | Print | Product List | Glossary Off
Versions: 1 2 3 4 5 6 7 8 9 10 11 12 13

000
FTUS45 KRIW 060500
TAFBPI
TAF
KBPI 060527Z 0606/0706 36008KT P6SM FEW110
     FM060900 VRB05KT P6SM FEW110
     FM061900 34012G18KT P6SM FEW110
     FM070100 35010KT P6SM SCT110=

USA.gov is the U.S. government's official web portal to all federal, state and local government web resources and services.